Time;durP1;ratioP1;P1;durP2;ratioP2;P2;SDS_P1;SDS_P2;PMS_P1;PMS_P2;Temp;Humidity;BMP_temperature;BMP_pressure;BME280_temperature;BME280_humidity;BME280_pressure;Samples;Min_cycle;Max_cycle;Signal;HPM_P1;HPM_P2
2022/08/14 00:01:40;;;;;;;;;;;;;;;;;;5066326;28;19931;-60
2022/08/14 00:04:06;;;;;;;;;;;;;;;;;;5067348;28;19924;-60
2022/08/14 00:06:32;;;;;;;;;;;;;;;;;;5067004;28;20324;-60
2022/08/14 00:08:58;;;;;;;;;;;;;;;;;;5066991;28;19925;-60
2022/08/14 00:11:24;;;;;;;;;;;;;;;;;;5066389;28;20019;-60
2022/08/14 00:13:50;;;;;;;;;;;;;;;;;;5049302;28;19971;-60
2022/08/14 00:16:16;;;;;;;;;;;;;;;;;;5066035;28;20370;-60
2022/08/14 00:18:42;;;;;;;;;;;;;;;;;;5066903;28;20011;-60
2022/08/14 00:21:08;;;;;;;;;;;;;;;;;;5066557;28;19935;-60
2022/08/14 00:23:34;;;;;;;;;;;;;;;;;;5066799;28;19924;-60
2022/08/14 00:26:00;;;;;;;;;;;;;;;;;;5065986;28;20370;-60
2022/08/14 00:28:26;;;;;;;;;;;;;;;;;;5066578;28;19924;-60
2022/08/14 00:30:52;;;;;;;;;;;;;;;;;;5066042;28;19973;-60
2022/08/14 00:33:18;;;;;;;;;;;;;;;;;;5066313;28;20015;-60
2022/08/14 00:35:44;;;;;;;;;;;;;;;;;;5066403;28;19925;-60
2022/08/14 00:38:10;;;;;;;;;;;;;;;;;;5048013;28;19964;-61
2022/08/14 00:40:36;;;;;;;;;;;;;;;;;;5066538;28;19975;-60
2022/08/14 00:43:02;;;;;;;;;;;;;;;;;;5048573;28;20375;-60
2022/08/14 00:45:28;;;;;;;;;;;;;;;;;;5065486;28;19978;-60
2022/08/14 00:47:54;;;;;;;;;;;;;;;;;;5065407;28;19924;-60
2022/08/14 00:50:20;;;;;;;;;;;;;;;;;;5066185;28;20619;-60
2022/08/14 00:52:46;;;;;;;;;;;;;;;;;;5066125;28;19931;-60
2022/08/14 00:55:12;;;;;;;;;;;;;;;;;;5065610;28;19925;-61
2022/08/14 00:57:38;;;;;;;;;;;;;;;;;;5066549;28;19978;-60
2022/08/14 01:00:04;;;;;;;;;;;;;;;;;;5066549;28;19925;-60
2022/08/14 01:02:30;;;;;;;;;;;;;;;;;;5051153;22;19925;-60
2022/08/14 01:04:57;;;;;;;;;;;;;;;;;;5025916;28;19979;-60
2022/08/14 01:07:23;;;;;;;;;;;;;;;;;;5025788;28;19925;-60
2022/08/14 01:09:49;;;;;;;;;;;;;;;;;;5025724;28;19979;-60
2022/08/14 01:12:15;;;;;;;;;;;;;;;;;;5025819;28;20371;-60
2022/08/14 01:14:41;;;;;;;;;;;;;;;;;;5026234;28;19932;-61
2022/08/14 01:17:07;;;;;;;;;;;;;;;;;;5025773;28;19932;-60
2022/08/14 01:22:18;;;;;;;;;;;;;;;;;;5025610;28;20374;-60
2022/08/14 01:24:44;;;;;;;;;;;;;;;;;;5025726;28;19932;-60
2022/08/14 01:27:10;;;;;;;;;;;;;;;;;;5025529;28;20023;-60
2022/08/14 01:29:36;;;;;;;;;;;;;;;;;;5025874;28;20329;-60
2022/08/14 01:32:03;;;;;;;;;;;;;;;;;;5024654;28;19955;-60
2022/08/14 01:34:31;;;;;;;;;;;;;;;;;;5024559;28;19927;-60
2022/08/14 01:36:57;;;;;;;;;;;;;;;;;;5024880;28;20346;-60
2022/08/14 01:39:23;;;;;;;;;;;;;;;;;;5024962;28;19925;-60
2022/08/14 01:41:56;;;;;;;;;;;;;;;;;;5025526;28;19925;-60
2022/08/14 01:44:23;;;;;;;;;;;;;;;;;;5025280;28;19979;-60
2022/08/14 01:46:53;;;;;;;;;;;;;;;;;;5024339;28;19932;-60
2022/08/14 01:49:19;;;;;;;;;;;;;;;;;;5025247;28;19983;-60
2022/08/14 01:51:45;;;;;;;;;;;;;;;;;;5024836;28;19929;-60
2022/08/14 01:54:11;;;;;;;;;;;;;;;;;;5025258;28;19931;-60
2022/08/14 01:56:38;;;;;;;;;;;;;;;;;;5025608;28;19925;-60
2022/08/14 01:59:04;;;;;;;;;;;;;;;;;;5025457;28;19925;-60
2022/08/14 02:01:30;;;;;;;;;;;;;;;;;;5005848;28;19944;-60
2022/08/14 02:03:56;;;;;;;;;;;;;;;;;;5025299;28;19925;-60
2022/08/14 02:06:25;;;;;;;;;;;;;;;;;;5024783;28;20382;-60
2022/08/14 02:08:51;;;;;;;;;;;;;;;;;;5024918;28;19932;-60
2022/08/14 02:11:23;;;;;;;;;;;;;;;;;;5024647;28;19925;-60
2022/08/14 02:13:49;;;;;;;;;;;;;;;;;;5024560;28;19929;-60
2022/08/14 02:16:16;;;;;;;;;;;;;;;;;;5023746;28;19925;-60
2022/08/14 02:18:42;;;;;;;;;;;;;;;;;;5024954;28;19925;-60
2022/08/14 02:21:08;;;;;;;;;;;;;;;;;;5007469;28;19925;-60
2022/08/14 02:23:35;;;;;;;;;;;;;;;;;;5025121;28;19932;-60
2022/08/14 02:26:01;;;;;;;;;;;;;;;;;;5024601;28;20375;-61
2022/08/14 02:28:30;;;;;;;;;;;;;;;;;;5024273;28;19929;-60
2022/08/14 02:30:56;;;;;;;;;;;;;;;;;;5023642;28;20400;-60
2022/08/14 02:33:22;;;;;;;;;;;;;;;;;;5024585;28;20020;-60
2022/08/14 02:35:48;;;;;;;;;;;;;;;;;;5024801;28;19943;-60
2022/08/14 02:38:14;;;;;;;;;;;;;;;;;;5023996;28;19983;-60
2022/08/14 02:40:40;;;;;;;;;;;;;;;;;;5024529;28;20020;-61
2022/08/14 02:43:07;;;;;;;;;;;;;;;;;;5024475;28;20294;-60
2022/08/14 02:45:33;;;;;;;;;;;;;;;;;;5023632;28;20154;-60
2022/08/14 02:47:59;;;;;;;;;;;;;;;;;;5024431;28;20409;-60
2022/08/14 02:50:25;;;;;;;;;;;;;;;;;;5024040;28;19926;-60
2022/08/14 02:52:53;;;;;;;;;;;;;;;;;;5024321;28;19925;-60
2022/08/14 02:55:19;;;;;;;;;;;;;;;;;;5024005;28;20314;-60
2022/08/14 02:57:45;;;;;;;;;;;;;;;;;;5023733;28;20007;-60
2022/08/14 03:00:12;;;;;;;;;;;;;;;;;;5023452;28;20079;-61
2022/08/14 03:02:38;;;;;;;;;;;;;;;;;;5024293;28;19925;-60
2022/08/14 03:05:04;;;;;;;;;;;;;;;;;;5024492;28;19929;-60
2022/08/14 03:07:30;;;;;;;;;;;;;;;;;;5024126;28;19925;-60
2022/08/14 03:09:56;;;;;;;;;;;;;;;;;;5024418;28;19925;-61
2022/08/14 03:12:22;;;;;;;;;;;;;;;;;;5028300;28;20370;-60
2022/08/14 03:14:50;;;;;;;;;;;;;;;;;;5030856;28;20012;-60
2022/08/14 03:17:16;;;;;;;;;;;;;;;;;;5030266;28;19925;-60
2022/08/14 03:19:42;;;;;;;;;;;;;;;;;;5030232;28;19940;-60
2022/08/14 03:22:08;;;;;;;;;;;;;;;;;;5031106;28;20624;-60
2022/08/14 03:24:35;;;;;;;;;;;;;;;;;;5030882;28;20485;-60
2022/08/14 03:27:01;;;;;;;;;;;;;;;;;;5029885;28;20514;-60
2022/08/14 03:29:27;;;;;;;;;;;;;;;;;;5030612;28;20000;-60
2022/08/14 03:31:53;;;;;;;;;;;;;;;;;;5029911;28;20023;-60
2022/08/14 03:34:22;;;;;;;;;;;;;;;;;;5030501;28;20013;-60
2022/08/14 03:36:53;;;;;;;;;;;;;;;;;;5030469;28;19948;-60
2022/08/14 03:39:21;;;;;;;;;;;;;;;;;;5029615;28;20344;-60
2022/08/14 03:41:47;;;;;;;;;;;;;;;;;;5030239;28;19923;-60
2022/08/14 03:44:13;;;;;;;;;;;;;;;;;;5030229;28;19925;-60
2022/08/14 03:46:41;;;;;;;;;;;;;;;;;;5029214;28;19955;-60
2022/08/14 03:49:08;;;;;;;;;;;;;;;;;;5030790;28;19932;-60
2022/08/14 03:51:34;;;;;;;;;;;;;;;;;;5030684;28;19925;-60
2022/08/14 03:54:00;;;;;;;;;;;;;;;;;;5029839;28;19968;-60
2022/08/14 03:56:28;;;;;;;;;;;;;;;;;;5030202;28;19932;-60
2022/08/14 03:58:54;;;;;;;;;;;;;;;;;;5030511;28;19925;-60
2022/08/14 04:01:22;;;;;;;;;;;;;;;;;;5029385;28;19925;-60
2022/08/14 04:03:48;;;;;;;;;;;;;;;;;;5030251;28;19925;-60
2022/08/14 04:06:15;;;;;;;;;;;;;;;;;;5029556;28;19933;-60
2022/08/14 04:08:41;;;;;;;;;;;;;;;;;;5030038;28;19932;-60
2022/08/14 04:11:07;;;;;;;;;;;;;;;;;;5030574;28;19921;-60
2022/08/14 04:13:34;;;;;;;;;;;;;;;;;;5030355;28;19925;-60
2022/08/14 04:16:00;;;;;;;;;;;;;;;;;;5029339;28;19929;-60
2022/08/14 04:18:26;;;;;;;;;;;;;;;;;;5029760;28;20059;-60
2022/08/14 04:20:52;;;;;;;;;;;;;;;;;;5029761;28;19947;-60
2022/08/14 04:23:18;;;;;;;;;;;;;;;;;;5027990;28;20654;-60
2022/08/14 04:25:44;;;;;;;;;;;;;;;;;;5026965;28;19925;-60
2022/08/14 04:28:10;;;;;;;;;;;;;;;;;;5026804;28;19968;-61
2022/08/14 04:30:38;;;;;;;;;;;;;;;;;;5026465;28;20018;-60
2022/08/14 04:33:04;;;;;;;;;;;;;;;;;;5027494;28;19995;-60
2022/08/14 04:35:30;;;;;;;;;;;;;;;;;;5026085;28;20370;-60
2022/08/14 04:43:35;;;;;;;;;;;;;;;;;;5025876;28;20029;-60
2022/08/14 04:46:01;;;;;;;;;;;;;;;;;;5025781;28;19925;-60
2022/08/14 04:48:27;;;;;;;;;;;;;;;;;;5026521;28;19932;-60
2022/08/14 04:50:54;;;;;;;;;;;;;;;;;;5026609;28;19975;-60
2022/08/14 04:53:20;;;;;;;;;;;;;;;;;;5008371;28;20313;-60
2022/08/14 04:55:47;;;;;;;;;;;;;;;;;;5025963;28;19921;-60
2022/08/14 04:58:13;;;;;;;;;;;;;;;;;;5008430;28;20359;-60
2022/08/14 05:00:39;;;;;;;;;;;;;;;;;;5025745;28;20067;-62
2022/08/14 05:03:05;;;;;;;;;;;;;;;;;;5026351;28;19925;-60
2022/08/14 05:05:31;;;;;;;;;;;;;;;;;;5025986;28;19925;-60
2022/08/14 05:07:57;;;;;;;;;;;;;;;;;;5008534;28;19932;-60
2022/08/14 05:10:24;;;;;;;;;;;;;;;;;;5025643;28;19925;-61
2022/08/14 05:12:51;;;;;;;;;;;;;;;;;;5026052;28;19932;-60
2022/08/14 05:15:18;;;;;;;;;;;;;;;;;;5025256;28;19925;-60
2022/08/14 05:17:44;;;;;;;;;;;;;;;;;;5026164;28;19972;-60
2022/08/14 05:20:11;;;;;;;;;;;;;;;;;;5008019;28;20030;-61
2022/08/14 05:22:37;;;;;;;;;;;;;;;;;;5026285;28;20367;-60
2022/08/14 05:25:03;;;;;;;;;;;;;;;;;;5025399;28;20627;-60
2022/08/14 05:27:29;;;;;;;;;;;;;;;;;;5008069;28;19929;-60
2022/08/14 05:29:55;;;;;;;;;;;;;;;;;;5025150;28;19948;-60
2022/08/14 05:32:21;;;;;;;;;;;;;;;;;;5025339;28;19926;-60
2022/08/14 05:34:47;;;;;;;;;;;;;;;;;;5025072;28;19932;-60
2022/08/14 05:37:13;;;;;;;;;;;;;;;;;;5024783;28;19925;-62
2022/08/14 05:39:40;;;;;;;;;;;;;;;;;;5025128;28;19932;-59
2022/08/14 05:42:06;;;;;;;;;;;;;;;;;;5025824;28;19948;-59
2022/08/14 05:44:32;;;;;;;;;;;;;;;;;;5024349;28;19925;-60
2022/08/14 05:46:58;;;;;;;;;;;;;;;;;;5025482;28;20035;-59
2022/08/14 05:49:24;;;;;;;;;;;;;;;;;;5024580;28;19925;-59
2022/08/14 05:51:50;;;;;;;;;;;;;;;;;;5025392;28;20032;-59
2022/08/14 05:54:16;;;;;;;;;;;;;;;;;;5024584;28;20031;-59
2022/08/14 05:56:43;;;;;;;;;;;;;;;;;;5007379;28;20011;-59
2022/08/14 05:59:10;;;;;;;;;;;;;;;;;;5024620;28;20023;-59
2022/08/14 06:01:36;;;;;;;;;;;;;;;;;;5024627;28;19925;-59
2022/08/14 06:04:02;;;;;;;;;;;;;;;;;;5025141;28;20019;-59
2022/08/14 06:06:28;;;;;;;;;;;;;;;;;;5024847;28;20422;-59
2022/08/14 06:08:54;;;;;;;;;;;;;;;;;;5024250;28;19926;-59
2022/08/14 06:11:20;;;;;;;;;;;;;;;;;;5024402;28;20290;-59
2022/08/14 06:13:46;;;;;;;;;;;;;;;;;;5024781;28;19940;-59
2022/08/14 06:16:12;;;;;;;;;;;;;;;;;;5023910;28;19964;-59
2022/08/14 06:18:38;;;;;;;;;;;;;;;;;;5025496;28;19975;-58
2022/08/14 06:21:04;;;;;;;;;;;;;;;;;;5024938;28;20422;-59
2022/08/14 06:23:30;;;;;;;;;;;;;;;;;;5023922;28;19979;-59
2022/08/14 06:25:56;;;;;;;;;;;;;;;;;;5024678;28;19925;-59
2022/08/14 06:28:22;;;;;;;;;;;;;;;;;;5024303;28;20016;-59
2022/08/14 06:30:48;;;;;;;;;;;;;;;;;;5023659;28;20438;-59
2022/08/14 06:33:14;;;;;;;;;;;;;;;;;;5024303;28;19932;-58
2022/08/14 06:35:40;;;;;;;;;;;;;;;;;;5024545;28;19983;-60
2022/08/14 06:38:06;;;;;;;;;;;;;;;;;;5024045;28;19976;-58
2022/08/14 06:40:32;;;;;;;;;;;;;;;;;;5024117;28;20012;-59
2022/08/14 06:42:58;;;;;;;;;;;;;;;;;;5024172;28;21062;-59
2022/08/14 06:45:24;;;;;;;;;;;;;;;;;;5022556;28;19979;-59
2022/08/14 06:47:50;;;;;;;;;;;;;;;;;;5023683;28;19924;-59
2022/08/14 06:50:16;;;;;;;;;;;;;;;;;;5023991;28;19972;-59
2022/08/14 06:52:43;;;;;;;;;;;;;;;;;;5023772;28;20011;-60
2022/08/14 06:55:10;;;;;;;;;;;;;;;;;;5024167;28;20428;-60
2022/08/14 06:57:37;;;;;;;;;;;;;;;;;;5024180;28;20290;-59
2022/08/14 07:00:03;;;;;;;;;;;;;;;;;;5023273;28;19944;-58
2022/08/14 07:07:59;;;;;;;;;;;;;;;;;;5024245;28;20371;-59
2022/08/14 07:10:25;;;;;;;;;;;;;;;;;;5014771;28;19929;-60
2022/08/14 07:12:51;;;;;;;;;;;;;;;;;;5002085;28;20023;-59
2022/08/14 07:15:17;;;;;;;;;;;;;;;;;;5000894;28;20582;-59
2022/08/14 07:17:43;;;;;;;;;;;;;;;;;;5002091;28;19936;-59
2022/08/14 07:20:09;;;;;;;;;;;;;;;;;;5002005;28;19980;-60
2022/08/14 07:22:35;;;;;;;;;;;;;;;;;;5001643;28;19930;-60
2022/08/14 07:25:01;;;;;;;;;;;;;;;;;;5001952;28;19936;-59
2022/08/14 07:27:27;;;;;;;;;;;;;;;;;;5001466;28;19972;-59
2022/08/14 07:29:53;;;;;;;;;;;;;;;;;;5000616;28;19933;-59
2022/08/14 07:32:20;;;;;;;;;;;;;;;;;;5001469;28;19926;-59
2022/08/14 07:34:46;;;;;;;;;;;;;;;;;;5001634;28;19929;-59
2022/08/14 07:37:12;;;;;;;;;;;;;;;;;;5001200;28;19983;-60
2022/08/14 07:39:38;;;;;;;;;;;;;;;;;;5002067;28;19999;-59
2022/08/14 07:42:05;;;;;;;;;;;;;;;;;;5002160;28;19990;-59
2022/08/14 07:44:31;;;;;;;;;;;;;;;;;;5000163;28;20641;-59
2022/08/14 07:46:57;;;;;;;;;;;;;;;;;;5001343;28;19938;-59
2022/08/14 07:49:23;;;;;;;;;;;;;;;;;;5006509;28;20485;-59
2022/08/14 07:51:49;;;;;;;;;;;;;;;;;;5020351;28;20354;-59
2022/08/14 07:54:15;;;;;;;;;;;;;;;;;;5020543;28;20037;-59
2022/08/14 07:56:41;;;;;;;;;;;;;;;;;;5020874;28;20513;-60
2022/08/14 07:59:07;;;;;;;;;;;;;;;;;;5023082;28;19929;-60
2022/08/14 08:01:33;;;;;;;;;;;;;;;;;;5024185;28;19955;-59
2022/08/14 08:03:59;;;;;;;;;;;;;;;;;;5006521;28;19929;-59
2022/08/14 08:06:25;;;;;;;;;;;;;;;;;;5006795;28;19929;-59
2022/08/14 08:08:51;;;;;;;;;;;;;;;;;;5024836;28;20016;-59
2022/08/14 08:11:18;;;;;;;;;;;;;;;;;;5024157;28;20317;-59
2022/08/14 08:13:44;;;;;;;;;;;;;;;;;;5023142;28;20125;-61
2022/08/14 08:16:10;;;;;;;;;;;;;;;;;;5022666;28;20734;-61
2022/08/14 08:18:36;;;;;;;;;;;;;;;;;;5024572;28;19929;-60
2022/08/14 08:21:02;;;;;;;;;;;;;;;;;;5024399;28;19977;-60
2022/08/14 08:23:28;;;;;;;;;;;;;;;;;;5023845;28;19932;-60
2022/08/14 08:25:54;;;;;;;;;;;;;;;;;;5024648;28;19925;-60
2022/08/14 08:28:20;;;;;;;;;;;;;;;;;;5023665;28;20127;-60
2022/08/14 08:30:47;;;;;;;;;;;;;;;;;;5023383;28;19933;-60
2022/08/14 08:33:15;;;;;;;;;;;;;;;;;;5024099;28;19929;-60
2022/08/14 08:35:41;;;;;;;;;;;;;;;;;;5023807;28;19968;-61
2022/08/14 08:38:07;;;;;;;;;;;;;;;;;;5024313;28;19929;-60
2022/08/14 08:40:34;;;;;;;;;;;;;;;;;;5024206;28;19929;-60
2022/08/14 08:43:00;;;;;;;;;;;;;;;;;;5023674;28;19936;-60
2022/08/14 08:45:26;;;;;;;;;;;;;;;;;;5023091;28;19928;-60
2022/08/14 08:47:52;;;;;;;;;;;;;;;;;;5023576;28;19933;-60
2022/08/14 08:50:19;;;;;;;;;;;;;;;;;;5023789;28;19936;-59
2022/08/14 08:52:45;;;;;;;;;;;;;;;;;;5024018;28;20321;-59
2022/08/14 08:55:11;;;;;;;;;;;;;;;;;;5023789;28;19933;-60
2022/08/14 08:57:37;;;;;;;;;;;;;;;;;;5023495;28;19983;-60
2022/08/14 09:00:03;;;;;;;;;;;;;;;;;;5023201;28;19933;-59
2022/08/14 09:02:29;;;;;;;;;;;;;;;;;;5022788;28;20061;-59
2022/08/14 09:04:56;;;;;;;;;;;;;;;;;;5023577;28;19929;-59
2022/08/14 09:07:22;;;;;;;;;;;;;;;;;;5023464;28;19983;-59
2022/08/14 09:09:55;;;;;;;;;;;;;;;;;;5022549;28;19925;-59
2022/08/14 09:12:21;;;;;;;;;;;;;;;;;;5023186;28;19925;-60
2022/08/14 09:14:47;;;;;;;;;;;;;;;;;;5022810;28;19925;-60
2022/08/14 09:17:13;;;;;;;;;;;;;;;;;;5023433;28;19925;-60
2022/08/14 09:19:39;;;;;;;;;;;;;;;;;;5023790;28;19936;-61
2022/08/14 09:22:05;;;;;;;;;;;;;;;;;;5023381;28;19921;-57
2022/08/14 09:24:31;;;;;;;;;;;;;;;;;;5022671;28;19925;-60
2022/08/14 09:26:57;;;;;;;;;;;;;;;;;;5022991;28;19976;-61
2022/08/14 09:29:23;;;;;;;;;;;;;;;;;;5021896;28;20397;-61
2022/08/14 09:31:49;;;;;;;;;;;;;;;;;;5023346;28;20367;-61
2022/08/14 09:34:16;;;;;;;;;;;;;;;;;;5021782;28;19929;-61
2022/08/14 09:36:42;;;;;;;;;;;;;;;;;;5020073;28;20059;-62
2022/08/14 09:39:10;;;;;;;;;;;;;;;;;;5021206;28;19936;-62
2022/08/14 09:41:36;;;;;;;;;;;;;;;;;;5022465;28;19932;-61
2022/08/14 09:44:02;;;;;;;;;;;;;;;;;;5021877;28;19929;-61
2022/08/14 09:46:28;;;;;;;;;;;;;;;;;;5022088;28;19936;-61
2022/08/14 09:48:54;;;;;;;;;;;;;;;;;;5022327;28;20364;-61
2022/08/14 09:51:20;;;;;;;;;;;;;;;;;;5021431;28;19929;-60
2022/08/14 09:53:46;;;;;;;;;;;;;;;;;;5020904;28;19937;-61
2022/08/14 09:56:12;;;;;;;;;;;;;;;;;;5021157;28;20016;-61
2022/08/14 09:58:38;;;;;;;;;;;;;;;;;;5021849;28;20011;-61
2022/08/14 10:01:04;;;;;;;;;;;;;;;;;;5022060;28;19929;-62
2022/08/14 10:03:32;;;;;;;;;;;;;;;;;;5021595;28;19929;-62
2022/08/14 10:05:59;;;;;;;;;;;;;;;;;;5021718;28;19925;-62
2022/08/14 10:08:25;;;;;;;;;;;;;;;;;;5018903;28;19960;-62
2022/08/14 10:10:51;;;;;;;;;;;;;;;;;;5021671;28;19932;-61
2022/08/14 10:13:18;;;;;;;;;;;;;;;;;;5021702;28;19929;-61
2022/08/14 10:15:44;;;;;;;;;;;;;;;;;;5021576;28;19925;-62
2022/08/14 10:18:10;;;;;;;;;;;;;;;;;;5021787;28;19925;-62
2022/08/14 10:20:38;;;;;;;;;;;;;;;;;;5022657;28;19925;-61
2022/08/14 10:23:04;;;;;;;;;;;;;;;;;;5021800;28;19924;-62
2022/08/14 10:25:30;;;;;;;;;;;;;;;;;;5021896;28;19988;-60
2022/08/14 10:27:56;;;;;;;;;;;;;;;;;;5022252;28;19925;-61
2022/08/14 10:30:23;;;;;;;;;;;;;;;;;;5021274;28;19929;-61
2022/08/14 10:32:49;;;;;;;;;;;;;;;;;;5021785;28;20475;-62
2022/08/14 10:35:15;;;;;;;;;;;;;;;;;;5021725;28;19924;-61
2022/08/14 10:37:41;;;;;;;;;;;;;;;;;;5021257;28;20028;-62
2022/08/14 10:40:07;;;;;;;;;;;;;;;;;;5022269;28;19975;-61
2022/08/14 10:42:33;;;;;;;;;;;;;;;;;;5021590;28;19933;-60
2022/08/14 10:44:59;;;;;;;;;;;;;;;;;;5021092;28;20547;-62
2022/08/14 10:47:25;;;;;;;;;;;;;;;;;;5021843;28;19935;-61
2022/08/14 10:49:51;;;;;;;;;;;;;;;;;;5022293;28;19949;-61
2022/08/14 10:52:17;;;;;;;;;;;;;;;;;;5021415;28;20409;-61
2022/08/14 10:54:43;;;;;;;;;;;;;;;;;;5020996;28;20420;-61
2022/08/14 10:57:10;;;;;;;;;;;;;;;;;;5020581;28;19929;-62
2022/08/14 10:59:37;;;;;;;;;;;;;;;;;;5020251;28;19929;-61
2022/08/14 11:02:04;;;;;;;;;;;;;;;;;;5020525;28;20034;-60
2022/08/14 11:04:30;;;;;;;;;;;;;;;;;;5020747;28;19929;-60
2022/08/14 11:06:56;;;;;;;;;;;;;;;;;;5020257;28;19935;-61
2022/08/14 11:09:23;;;;;;;;;;;;;;;;;;5020644;28;19925;-61
2022/08/14 11:11:49;;;;;;;;;;;;;;;;;;5020483;28;20016;-62
2022/08/14 11:14:15;;;;;;;;;;;;;;;;;;5020726;28;20030;-61
2022/08/14 11:16:41;;;;;;;;;;;;;;;;;;5020950;28;19972;-62
2022/08/14 11:19:07;;;;;;;;;;;;;;;;;;5021808;28;19932;-61
2022/08/14 11:21:33;;;;;;;;;;;;;;;;;;5019966;28;19925;-61
2022/08/14 11:23:59;;;;;;;;;;;;;;;;;;5020869;28;19983;-61
2022/08/14 11:26:26;;;;;;;;;;;;;;;;;;5018110;28;19925;-60
2022/08/14 11:28:52;;;;;;;;;;;;;;;;;;5020422;28;19952;-60
2022/08/14 11:31:18;;;;;;;;;;;;;;;;;;5020801;28;20383;-59
2022/08/14 11:33:44;;;;;;;;;;;;;;;;;;5024242;28;19936;-60
2022/08/14 11:36:12;;;;;;;;;;;;;;;;;;5007475;28;19925;-60
2022/08/14 11:38:39;;;;;;;;;;;;;;;;;;5025553;28;19933;-60
2022/08/14 11:41:06;;;;;;;;;;;;;;;;;;5025479;28;19926;-60
2022/08/14 11:43:32;;;;;;;;;;;;;;;;;;5024302;28;20027;-61
2022/08/14 11:45:59;;;;;;;;;;;;;;;;;;5024783;28;20414;-60
2022/08/14 11:48:25;;;;;;;;;;;;;;;;;;5024887;28;19925;-60
2022/08/14 11:50:53;;;;;;;;;;;;;;;;;;5024380;28;20094;-60
2022/08/14 11:53:19;;;;;;;;;;;;;;;;;;5024746;28;19970;-60
2022/08/14 11:55:45;;;;;;;;;;;;;;;;;;5024915;28;20015;-60
2022/08/14 11:58:11;;;;;;;;;;;;;;;;;;5024627;28;19929;-60
2022/08/14 12:00:37;;;;;;;;;;;;;;;;;;5023684;28;20008;-60
2022/08/14 12:03:03;;;;;;;;;;;;;;;;;;5024831;28;20683;-60
2022/08/14 12:05:29;;;;;;;;;;;;;;;;;;5024093;28;20327;-60
2022/08/14 12:07:55;;;;;;;;;;;;;;;;;;5024427;28;19935;-60
2022/08/14 12:10:21;;;;;;;;;;;;;;;;;;5023468;28;20019;-58
2022/08/14 12:12:50;;;;;;;;;;;;;;;;;;5024205;28;19998;-58
2022/08/14 12:15:16;;;;;;;;;;;;;;;;;;5005777;28;19929;-58
2022/08/14 12:17:42;;;;;;;;;;;;;;;;;;5023684;28;19936;-59
2022/08/14 12:20:09;;;;;;;;;;;;;;;;;;5023279;28;20347;-59
2022/08/14 12:22:35;;;;;;;;;;;;;;;;;;5023617;28;20018;-59
2022/08/14 12:25:01;;;;;;;;;;;;;;;;;;5023819;28;19976;-59
2022/08/14 12:27:27;;;;;;;;;;;;;;;;;;5023632;28;19929;-59
2022/08/14 12:29:53;;;;;;;;;;;;;;;;;;5022762;28;20581;-59
2022/08/14 12:32:19;;;;;;;;;;;;;;;;;;5023058;28;19929;-59
2022/08/14 12:34:45;;;;;;;;;;;;;;;;;;5022866;28;19929;-59
2022/08/14 12:37:11;;;;;;;;;;;;;;;;;;5021431;28;19933;-59
2022/08/14 12:39:38;;;;;;;;;;;;;;;;;;5022435;28;20405;-59
2022/08/14 12:42:06;;;;;;;;;;;;;;;;;;5024277;28;20390;-59
2022/08/14 12:44:32;;;;;;;;;;;;;;;;;;5021641;28;19925;-59
2022/08/14 12:46:58;;;;;;;;;;;;;;;;;;5023522;28;19929;-59
2022/08/14 12:49:24;;;;;;;;;;;;;;;;;;5023535;28;19929;-59
2022/08/14 12:51:53;;;;;;;;;;;;;;;;;;5023937;28;20067;-59
2022/08/14 12:54:19;;;;;;;;;;;;;;;;;;5023631;28;19936;-59
2022/08/14 12:56:45;;;;;;;;;;;;;;;;;;5023168;28;19921;-59
2022/08/14 12:59:11;;;;;;;;;;;;;;;;;;5022207;28;19928;-59
2022/08/14 13:01:39;;;;;;;;;;;;;;;;;;5022718;28;20319;-59
2022/08/14 13:04:07;;;;;;;;;;;;;;;;;;5020833;28;20378;-59
2022/08/14 13:06:33;;;;;;;;;;;;;;;;;;5023037;28;19925;-59
2022/08/14 13:08:59;;;;;;;;;;;;;;;;;;5023396;28;19929;-59
2022/08/14 13:11:25;;;;;;;;;;;;;;;;;;5023047;28;19936;-59
2022/08/14 13:13:53;;;;;;;;;;;;;;;;;;5022072;28;22272;-59
2022/08/14 13:16:19;;;;;;;;;;;;;;;;;;5022771;28;19935;-59
2022/08/14 13:18:45;;;;;;;;;;;;;;;;;;5023428;28;19929;-60
2022/08/14 13:21:12;;;;;;;;;;;;;;;;;;5023201;28;19995;-61
2022/08/14 13:23:38;;;;;;;;;;;;;;;;;;5005990;28;19925;-60
2022/08/14 13:26:04;;;;;;;;;;;;;;;;;;5023410;28;19928;-61
2022/08/14 13:28:30;;;;;;;;;;;;;;;;;;5021638;28;19932;-60
2022/08/14 13:30:56;;;;;;;;;;;;;;;;;;5022676;28;19929;-61
2022/08/14 13:33:22;;;;;;;;;;;;;;;;;;5023042;28;19963;-60
2022/08/14 13:35:48;;;;;;;;;;;;;;;;;;5023203;28;19964;-61
2022/08/14 13:38:14;;;;;;;;;;;;;;;;;;5022598;28;19987;-61
2022/08/14 13:40:40;;;;;;;;;;;;;;;;;;5022243;28;19983;-61
2022/08/14 13:43:07;;;;;;;;;;;;;;;;;;5022978;28;20042;-60
2022/08/14 13:45:33;;;;;;;;;;;;;;;;;;5021201;28;19929;-61
2022/08/14 13:47:59;;;;;;;;;;;;;;;;;;5022932;28;19935;-61
2022/08/14 13:50:25;;;;;;;;;;;;;;;;;;5022650;28;20371;-61
2022/08/14 13:52:57;;;;;;;;;;;;;;;;;;5023030;28;19929;-60
2022/08/14 13:55:23;;;;;;;;;;;;;;;;;;5021768;28;19952;-61
2022/08/14 13:57:49;;;;;;;;;;;;;;;;;;5021848;28;19929;-61
2022/08/14 14:00:15;;;;;;;;;;;;;;;;;;5021736;28;19925;-61
2022/08/14 14:02:41;;;;;;;;;;;;;;;;;;5022622;28;20122;-61
2022/08/14 14:05:07;;;;;;;;;;;;;;;;;;5023005;28;20634;-61
2022/08/14 14:07:33;;;;;;;;;;;;;;;;;;5022191;28;19932;-61
2022/08/14 14:09:59;;;;;;;;;;;;;;;;;;5022137;28;19929;-61
2022/08/14 14:12:26;;;;;;;;;;;;;;;;;;5021623;28;19933;-61
2022/08/14 14:14:52;;;;;;;;;;;;;;;;;;5021598;28;19925;-61
2022/08/14 14:17:23;;;;;;;;;;;;;;;;;;5022122;28;19925;-61
2022/08/14 14:19:49;;;;;;;;;;;;;;;;;;5022229;28;19948;-61
2022/08/14 14:22:16;;;;;;;;;;;;;;;;;;5021921;28;20023;-62
2022/08/14 14:24:42;;;;;;;;;;;;;;;;;;5022470;28;19936;-61
2022/08/14 14:27:08;;;;;;;;;;;;;;;;;;5021710;28;20594;-62
2022/08/14 14:29:34;;;;;;;;;;;;;;;;;;5021927;28;19936;-61
2022/08/14 14:32:00;;;;;;;;;;;;;;;;;;5022438;28;19925;-61
2022/08/14 14:34:26;;;;;;;;;;;;;;;;;;5021608;28;19950;-61
2022/08/14 14:36:53;;;;;;;;;;;;;;;;;;5022322;28;19929;-61
2022/08/14 14:39:19;;;;;;;;;;;;;;;;;;5021518;28;19998;-61
2022/08/14 14:41:45;;;;;;;;;;;;;;;;;;5021697;28;20482;-61
2022/08/14 14:44:13;;;;;;;;;;;;;;;;;;5021154;28;20035;-62
2022/08/14 14:46:39;;;;;;;;;;;;;;;;;;5021498;28;20008;-62
2022/08/14 14:49:05;;;;;;;;;;;;;;;;;;5022030;28;20023;-61
2022/08/14 14:51:31;;;;;;;;;;;;;;;;;;5021264;28;19925;-62
2022/08/14 14:53:57;;;;;;;;;;;;;;;;;;5004160;28;19929;-62
2022/08/14 14:56:24;;;;;;;;;;;;;;;;;;5019367;28;19929;-62
2022/08/14 14:58:50;;;;;;;;;;;;;;;;;;5019323;28;20313;-62
2022/08/14 15:01:22;;;;;;;;;;;;;;;;;;5020344;28;20389;-61
2022/08/14 15:03:48;;;;;;;;;;;;;;;;;;5020752;28;19925;-61
2022/08/14 15:06:14;;;;;;;;;;;;;;;;;;5020761;28;20441;-62
2022/08/14 15:08:40;;;;;;;;;;;;;;;;;;5020405;28;19925;-61
2022/08/14 15:11:07;;;;;;;;;;;;;;;;;;5021085;28;19925;-61
2022/08/14 15:13:36;;;;;;;;;;;;;;;;;;5021083;28;19929;-60
2022/08/14 15:16:02;;;;;;;;;;;;;;;;;;5013216;28;19987;-61
2022/08/14 15:18:28;;;;;;;;;;;;;;;;;;5020910;28;19929;-61
2022/08/14 15:20:55;;;;;;;;;;;;;;;;;;5020604;28;19975;-62
2022/08/14 15:23:21;;;;;;;;;;;;;;;;;;5019606;28;19932;-63
2022/08/14 15:25:48;;;;;;;;;;;;;;;;;;5020382;28;19929;-61
2022/08/14 15:28:14;;;;;;;;;;;;;;;;;;5019931;28;19936;-61
2022/08/14 15:30:40;;;;;;;;;;;;;;;;;;5020953;28;19926;-61
2022/08/14 15:33:06;;;;;;;;;;;;;;;;;;5021238;28;19981;-61
2022/08/14 15:35:32;;;;;;;;;;;;;;;;;;5020151;28;19928;-64
2022/08/14 15:38:06;;;;;;;;;;;;;;;;;;5019966;28;19929;-62
2022/08/14 15:40:33;;;;;;;;;;;;;;;;;;5019931;28;19929;-61
2022/08/14 15:42:59;;;;;;;;;;;;;;;;;;5002174;28;19929;-62
2022/08/14 15:45:25;;;;;;;;;;;;;;;;;;5002691;28;19956;-63
2022/08/14 15:47:51;;;;;;;;;;;;;;;;;;5020031;28;19932;-60
2022/08/14 15:50:17;;;;;;;;;;;;;;;;;;5017778;28;20333;-62
2022/08/14 15:52:43;;;;;;;;;;;;;;;;;;5016189;28;19944;-62
2022/08/14 15:55:10;;;;;;;;;;;;;;;;;;5017748;28;20599;-61
2022/08/14 15:57:36;;;;;;;;;;;;;;;;;;5020584;28;19979;-61
2022/08/14 16:02:47;;;;;;;;;;;;;;;;;;5014460;28;19925;-61
2022/08/14 16:05:13;;;;;;;;;;;;;;;;;;5004956;28;19932;-61
2022/08/14 16:07:39;;;;;;;;;;;;;;;;;;5021135;28;19929;-61
2022/08/14 16:10:05;;;;;;;;;;;;;;;;;;5020989;28;19976;-61
2022/08/14 16:12:31;;;;;;;;;;;;;;;;;;5020527;28;19937;-61
2022/08/14 16:14:58;;;;;;;;;;;;;;;;;;5019701;28;19968;-61
2022/08/14 16:17:24;;;;;;;;;;;;;;;;;;5020205;28;19929;-61
2022/08/14 16:19:50;;;;;;;;;;;;;;;;;;5023544;28;19925;-61
2022/08/14 16:22:17;;;;;;;;;;;;;;;;;;5024247;28;20019;-61
2022/08/14 16:24:43;;;;;;;;;;;;;;;;;;5006234;28;19983;-61
2022/08/14 16:27:10;;;;;;;;;;;;;;;;;;5024138;28;19929;-61
2022/08/14 16:29:36;;;;;;;;;;;;;;;;;;5023017;28;20112;-61
2022/08/14 16:32:02;;;;;;;;;;;;;;;;;;5023724;28;20374;-61
2022/08/14 16:34:28;;;;;;;;;;;;;;;;;;5022073;28;20450;-61
2022/08/14 16:36:56;;;;;;;;;;;;;;;;;;5020732;28;20023;-61
2022/08/14 16:39:22;;;;;;;;;;;;;;;;;;5018362;28;19929;-61
2022/08/14 16:41:48;;;;;;;;;;;;;;;;;;5021769;28;20871;-61
2022/08/14 16:44:15;;;;;;;;;;;;;;;;;;5021157;28;19935;-61
2022/08/14 16:46:43;;;;;;;;;;;;;;;;;;5022984;28;19963;-61
2022/08/14 16:49:09;;;;;;;;;;;;;;;;;;5023721;28;19929;-61
2022/08/14 16:51:37;;;;;;;;;;;;;;;;;;5024016;28;19926;-61
2022/08/14 16:54:03;;;;;;;;;;;;;;;;;;5020343;28;20426;-61
2022/08/14 16:56:30;;;;;;;;;;;;;;;;;;5022422;28;19925;-60